• Join FlightAware (Why Join?)
  • Login
  • US Flag 
09:06PM EDT


 

Airport Tracker/Info


-or-


 

Live Flight TrackerFlight Track Log ✈ LYM3418 ✈ 25-Apr-2012 ✈ KDEN - KGUC

Flight Track Log - Related Links

Times and Time Zones

All times are in EDT time to prevent confusion due to time zone crossing. See the LYM3418 flight status page for this flight to view local times or setup timezone preferences in your user account.

Time Position Orientation Groundspeed Altitude Reporting Facility
EDT Latitude Longitude Course Direction KTS MPH feet Rate Location/Type
08:13AM 39.9000 -104.6667 294° West 159 183 8,100  Level Denver TRACON
08:14AM 39.9167 -104.7167 237° Southwest 184 212 9,000 840 Climbing Denver TRACON
08:15AM 39.8833 -104.7833 252° West 218 251 9,800 900 Climbing Denver TRACON
08:16AM 39.8667 -104.8500 251° West 217 250 10,800 900 Climbing Denver TRACON
08:18AM 39.8381 -104.9561 247° West 225 259 12,000 840 Climbing Denver Center
08:19AM 39.8139 -105.0297 239° Southwest 231 266 12,900 1,080 Climbing Denver Center
08:20AM 39.7814 -105.1006 237° Southwest 236 272 14,200 1,080 Climbing Denver Center
08:21AM 39.7469 -105.1689 230° Southwest 236 272 15,100 1,020 Climbing Denver Center
08:22AM 39.7078 -105.2289 235° Southwest 231 266 16,300 1,080 Climbing Denver Center
08:23AM 39.6753 -105.2889 230° Southwest 220 253 17,300 720 Climbing Denver Center
08:24AM 39.6383 -105.3461 240° Southwest 208 239 17,800 660 Climbing Denver Center
08:25AM 39.6097 -105.4114 249° West 208 239 18,700 840 Climbing Denver Center
08:26AM 39.5894 -105.4817 251° West 202 232 19,600 600 Climbing Denver Center
08:27AM 39.5711 -105.5519 251° West 196 226 19,900 120 Climbing Denver Center
08:28AM 39.5511 -105.6275 250° West 214 246 19,900 60 Level Denver Center
08:29AM 39.5286 -105.7061 251° West 226 260 20,100 60 Climbing Denver Center
08:30AM 39.5061 -105.7897 253° West 238 274 20,100 -60 Level Denver Center
08:31AM 39.4858 -105.8733 250° West 243 280 20,000 -120 Descending Denver Center
08:32AM 39.4633 -105.9542 234° Southwest 243 280 19,900  Descending Denver Center
08:33AM 39.4258 -106.0217 214° Southwest 238 274 20,000  Climbing Denver Center
08:34AM 39.3678 -106.0731 217° Southwest 247 284 20,000 -60 Level Denver Center
08:35AM 39.3117 -106.1269 225° Southwest 257 296 19,900 -60 Descending Denver Center
08:36AM 39.2722 -106.1781 221° Southwest 252 290 19,900 60 Level Denver Center
08:37AM 39.2244 -106.2319 220° Southwest 238 274 20,100 60 Climbing Denver Center
08:38AM 39.1722 -106.2883 218° Southwest 240 276 20,100  Level Denver Center
08:39AM 39.1181 -106.3419 220° Southwest 245 282 20,100 -60 Level Denver Center
08:40AM 39.0661 -106.3983 219° Southwest 250 288 20,000 -480 Descending Denver Center
08:41AM 39.0097 -106.4572 216° Southwest 250 288 19,200 -900 Descending Denver Center
08:42AM 38.9494 -106.5133 219° Southwest 261 300 18,300 -900 Descending Denver Center
08:43AM 38.8889 -106.5772 212° Southwest 272 313 17,400 -960 Descending Denver Center
08:44AM 38.8219 -106.6303 212° Southwest 279 321 16,400 -1,020 Descending Denver Center